Time;durP1;ratioP1;P1;durP2;ratioP2;P2;SDS_P1;SDS_P2;PMS_P1;PMS_P2;Temp;Humidity;BMP_temperature;BMP_pressure;BME280_temperature;BME280_humidity;BME280_pressure;Samples;Min_cycle;Max_cycle;Signal;HPM_P1;HPM_P2
2023/08/07 00:02:09;;;;;;;1.57;1.00;;;14.00;98.20;;;;;;5001726;28;20532;-84
2023/08/07 00:04:36;;;;;;;1.57;1.00;;;14.00;98.20;;;;;;5011240;28;20468;-83
2023/08/07 00:07:06;;;;;;;1.53;1.00;;;14.00;98.20;;;;;;4998528;28;20495;-83
2023/08/07 00:09:36;;;;;;;1.57;1.00;;;14.00;98.20;;;;;;5013638;28;20457;-84
2023/08/07 00:12:03;;;;;;;1.57;1.00;;;14.00;98.20;;;;;;5000472;28;20490;-84
2023/08/07 00:14:44;;;;;;;1.57;1.00;;;14.00;98.20;;;;;;5011079;28;20526;-83
2023/08/07 00:17:13;;;;;;;1.57;1.00;;;14.00;98.20;;;;;;5000162;28;20484;-84
2023/08/07 00:19:39;;;;;;;1.60;1.10;;;14.00;98.20;;;;;;5011300;28;20519;-84
2023/08/07 00:22:06;;;;;;;1.57;1.00;;;14.00;98.20;;;;;;5000387;28;21054;-84
2023/08/07 00:24:33;;;;;;;1.60;1.10;;;14.00;98.20;;;;;;5010178;28;20559;-83
2023/08/07 00:27:03;;;;;;;1.60;1.00;;;14.00;98.20;;;;;;5002167;28;20488;-84
2023/08/07 00:29:31;;;;;;;1.57;1.17;;;14.00;98.20;;;;;;5013400;28;20978;-84
2023/08/07 00:31:58;;;;;;;1.53;1.00;;;14.00;98.20;;;;;;5000420;28;21018;-82
2023/08/07 00:34:26;;;;;;;1.57;1.00;;;13.90;98.20;;;;;;5010574;28;21105;-84
2023/08/07 00:36:53;;;;;;;1.60;1.10;;;13.90;98.20;;;;;;5000422;28;20480;-84
2023/08/07 00:39:21;;;;;;;1.57;1.00;;;13.90;98.20;;;;;;5010229;28;20840;-84
2023/08/07 00:41:47;;;;;;;1.57;1.00;;;13.90;98.20;;;;;;4997635;28;20476;-84
2023/08/07 00:44:14;;;;;;;1.60;1.00;;;13.90;98.20;;;;;;5010985;28;20491;-84
2023/08/07 00:46:42;;;;;;;1.60;1.00;;;13.90;98.20;;;;;;4998254;28;21056;-84
2023/08/07 00:49:12;;;;;;;1.57;1.00;;;13.90;98.20;;;;;;5010220;28;20475;-84
2023/08/07 00:51:43;;;;;;;1.57;1.10;;;13.90;98.20;;;;;;5000227;28;20571;-84
2023/08/07 00:54:12;;;;;;;1.57;1.00;;;13.90;98.20;;;;;;5011269;28;20917;-84
2023/08/07 00:56:40;;;;;;;1.60;1.00;;;13.90;98.20;;;;;;5000753;28;20567;-84
2023/08/07 00:59:07;;;;;;;1.60;1.00;;;13.90;98.20;;;;;;5008298;28;20460;-85
2023/08/07 01:01:36;;;;;;;1.57;1.00;;;13.90;98.20;;;;;;4998504;28;20558;-85
2023/08/07 01:04:03;;;;;;;1.50;0.90;;;13.90;98.20;;;;;;5008246;28;20538;-85
2023/08/07 01:06:29;;;;;;;1.60;1.10;;;13.90;98.20;;;;;;4988741;28;20491;-84
2023/08/07 01:08:58;;;;;;;1.60;1.00;;;13.90;98.20;;;;;;5003110;28;20479;-85
2023/08/07 01:11:35;;;;;;;1.60;1.00;;;13.80;98.20;;;;;;4998064;28;20494;-84
2023/08/07 01:14:11;;;;;;;1.60;1.10;;;13.80;98.20;;;;;;5006416;28;20483;-84
2023/08/07 01:16:43;;;;;;;1.60;1.10;;;13.80;98.20;;;;;;4996193;28;20489;-86
2023/08/07 01:19:19;;;;;;;1.60;1.00;;;13.80;98.20;;;;;;5007693;28;20491;-84
2023/08/07 01:21:49;;;;;;;1.60;1.10;;;13.80;98.20;;;;;;5000131;28;20519;-84
2023/08/07 01:24:16;;;;;;;1.50;1.00;;;13.80;98.20;;;;;;5009295;28;20499;-84
2023/08/07 01:26:45;;;;;;;1.57;1.00;;;13.80;98.20;;;;;;4998635;28;21056;-86
2023/08/07 01:29:17;;;;;;;1.50;1.00;;;13.80;98.20;;;;;;5008239;28;20930;-85
2023/08/07 01:31:51;;;;;;;1.60;1.10;;;13.80;98.20;;;;;;4997954;28;20516;-82
2023/08/07 01:34:23;;;;;;;1.57;1.00;;;13.70;98.20;;;;;;5009032;28;20503;-86
2023/08/07 01:37:21;;;;;;;1.60;1.10;;;13.70;98.20;;;;;;4993538;28;20865;-85
2023/08/07 01:39:50;;;;;;;1.60;1.00;;;13.70;98.20;;;;;;4994696;28;21399;-85
2023/08/07 01:42:18;;;;;;;1.60;1.07;;;13.70;98.20;;;;;;4999799;28;20559;-85
2023/08/07 01:44:45;;;;;;;1.50;0.90;;;13.70;98.20;;;;;;5013138;28;20571;-84
2023/08/07 01:47:11;;;;;;;1.60;1.10;;;13.70;98.20;;;;;;4999048;28;20486;-85
2023/08/07 01:49:40;;;;;;;1.60;1.10;;;13.70;98.20;;;;;;5013010;28;20460;-85
2023/08/07 01:52:11;;;;;;;1.53;1.10;;;13.70;98.20;;;;;;4996753;28;20709;-85
2023/08/07 01:54:41;;;;;;;1.70;1.10;;;13.70;98.20;;;;;;5007678;28;20486;-85
2023/08/07 01:57:08;;;;;;;1.57;1.00;;;13.70;98.20;;;;;;4994184;28;20471;-87
2023/08/07 01:59:35;;;;;;;1.60;1.00;;;13.70;98.20;;;;;;5008078;28;20554;-84
2023/08/07 02:02:02;;;;;;;1.57;1.00;;;13.60;98.20;;;;;;4998016;28;20479;-84
2023/08/07 02:04:29;;;;;;;1.60;1.00;;;13.60;98.20;;;;;;5007659;28;20483;-84
2023/08/07 02:06:56;;;;;;;1.50;1.00;;;13.70;98.20;;;;;;4998336;28;20479;-87
2023/08/07 02:09:24;;;;;;;1.60;1.10;;;13.70;98.20;;;;;;5008849;28;20464;-84
2023/08/07 02:11:51;;;;;;;1.50;1.00;;;13.60;98.20;;;;;;4997985;28;20562;-86
2023/08/07 02:14:18;;;;;;;1.60;1.07;;;13.60;98.20;;;;;;5006438;28;20479;-84
2023/08/07 02:16:45;;;;;;;3.40;1.43;;;13.60;98.20;;;;;;5005649;28;20539;-85
2023/08/07 02:19:11;;;;;;;1.60;1.00;;;13.60;98.20;;;;;;5014245;28;20932;-83
2023/08/07 02:21:38;;;;;;;1.50;1.00;;;13.60;98.20;;;;;;5001894;28;20834;-85
2023/08/07 02:24:06;;;;;;;1.60;1.00;;;13.60;98.20;;;;;;5007378;28;20515;-83
2023/08/07 02:26:34;;;;;;;1.60;1.00;;;13.60;98.20;;;;;;4999245;28;20491;-86
2023/08/07 02:29:02;;;;;;;1.53;1.00;;;13.60;98.20;;;;;;5011969;28;20478;-84
2023/08/07 02:31:29;;;;;;;1.60;1.10;;;13.50;98.20;;;;;;5001401;28;20483;-86
2023/08/07 02:33:56;;;;;;;1.53;1.00;;;13.50;98.20;;;;;;5011042;28;20475;-85
2023/08/07 02:36:23;;;;;;;1.53;1.00;;;13.50;98.20;;;;;;5007033;28;20511;-84
2023/08/07 02:38:50;;;;;;;1.50;1.00;;;13.50;98.20;;;;;;5012171;28;20475;-82
2023/08/07 02:41:17;;;;;;;1.57;1.00;;;13.50;98.20;;;;;;5003491;28;20480;-84
2023/08/07 02:43:45;;;;;;;1.57;1.00;;;13.50;98.20;;;;;;5009812;28;20484;-84
2023/08/07 02:46:11;;;;;;;1.50;1.00;;;13.50;98.20;;;;;;5001667;28;21768;-83
2023/08/07 02:48:39;;;;;;;1.53;1.00;;;13.50;98.20;;;;;;5010949;28;20910;-83
2023/08/07 02:51:06;;;;;;;1.53;1.00;;;13.50;98.20;;;;;;4998638;28;22174;-83
2023/08/07 02:53:33;;;;;;;1.57;1.00;;;13.50;98.20;;;;;;5010541;28;20503;-83
2023/08/07 02:56:00;;;;;;;1.60;1.00;;;13.50;98.20;;;;;;5002812;28;20470;-83
2023/08/07 02:58:27;;;;;;;1.60;1.10;;;13.50;98.20;;;;;;5010560;28;20575;-83
2023/08/07 03:00:55;;;;;;;1.60;1.00;;;13.50;98.20;;;;;;5002411;28;20774;-83
2023/08/07 03:03:22;;;;;;;1.57;1.00;;;13.50;98.20;;;;;;5014302;28;21048;-84
2023/08/07 03:05:50;;;;;;;1.60;1.10;;;13.50;98.20;;;;;;5008650;28;20572;-83
2023/08/07 03:08:18;;;;;;;1.60;1.13;;;13.50;98.20;;;;;;5012639;28;20492;-84
2023/08/07 03:10:52;;;;;;;1.57;1.00;;;13.50;98.20;;;;;;5012685;28;20963;-84
2023/08/07 03:13:18;;;;;;;1.53;1.00;;;13.50;98.20;;;;;;4985725;28;20503;-83
2023/08/07 03:15:45;;;;;;;1.60;1.00;;;13.50;98.20;;;;;;5013820;28;21247;-85
2023/08/07 03:18:13;;;;;;;1.60;1.00;;;13.50;98.20;;;;;;5003839;28;20476;-85
2023/08/07 03:20:40;;;;;;;1.57;1.00;;;13.40;98.20;;;;;;5012575;28;20452;-85
2023/08/07 03:23:07;;;;;;;1.53;1.00;;;13.50;98.20;;;;;;5001446;28;21005;-85
2023/08/07 03:25:34;;;;;;;1.60;1.10;;;13.50;98.20;;;;;;5011086;28;21017;-83
2023/08/07 03:28:01;;;;;;;1.60;1.00;;;13.50;98.20;;;;;;5002169;28;20484;-85
2023/08/07 03:30:28;;;;;;;1.60;1.03;;;13.50;98.20;;;;;;5012952;28;20452;-85
2023/08/07 03:32:55;;;;;;;1.57;1.00;;;13.40;98.20;;;;;;5001433;28;21029;-84
2023/08/07 03:35:23;;;;;;;1.60;1.00;;;13.40;98.20;;;;;;5011938;28;20457;-84
2023/08/07 03:37:50;;;;;;;1.60;1.10;;;13.40;98.20;;;;;;5000540;28;20480;-83
2023/08/07 03:40:17;;;;;;;1.60;1.10;;;13.40;98.20;;;;;;5010642;28;20538;-85
2023/08/07 03:42:44;;;;;;;1.60;1.10;;;13.40;98.20;;;;;;5007809;28;20641;-85
2023/08/07 03:45:11;;;;;;;1.60;1.00;;;13.40;98.20;;;;;;5017668;28;20896;-83
2023/08/07 03:47:38;;;;;;;1.60;1.00;;;13.40;98.20;;;;;;4989539;28;20492;-84
2023/08/07 03:50:06;;;;;;;1.60;1.10;;;13.40;98.20;;;;;;5015579;28;20539;-84
2023/08/07 03:52:34;;;;;;;1.60;1.00;;;13.40;98.20;;;;;;5005979;28;20482;-84
2023/08/07 03:55:01;;;;;;;1.53;1.00;;;13.40;98.20;;;;;;5012913;28;20696;-85
2023/08/07 03:57:28;;;;;;;1.70;1.20;;;13.40;98.20;;;;;;5003730;28;20488;-82
2023/08/07 03:59:55;;;;;;;1.60;1.10;;;13.40;98.20;;;;;;5014689;28;21001;-83
2023/08/07 04:02:22;;;;;;;1.60;1.00;;;13.40;98.20;;;;;;5002960;28;20559;-84
2023/08/07 04:04:58;;;;;;;1.60;1.00;;;13.40;98.20;;;;;;5014225;28;20887;-83
2023/08/07 04:07:25;;;;;;;1.60;1.00;;;13.40;98.20;;;;;;5003648;28;20480;-82
2023/08/07 04:09:54;;;;;;;1.60;1.10;;;13.40;98.20;;;;;;5012990;28;20507;-84
2023/08/07 04:12:20;;;;;;;1.60;1.07;;;13.50;98.20;;;;;;5002960;28;20930;-82
2023/08/07 04:14:47;;;;;;;1.50;1.00;;;13.50;98.20;;;;;;5013577;28;20506;-86
2023/08/07 04:17:14;;;;;;;1.60;1.00;;;13.50;98.20;;;;;;5004429;28;20490;-84
2023/08/07 04:19:41;;;;;;;1.60;1.00;;;13.40;98.20;;;;;;5014360;28;20498;-84
2023/08/07 04:22:08;;;;;;;1.53;1.10;;;13.50;98.20;;;;;;5004665;28;20534;-83
2023/08/07 04:24:35;;;;;;;1.60;1.00;;;13.50;98.20;;;;;;5019678;28;20475;-83
2023/08/07 04:27:04;;;;;;;1.53;1.00;;;13.50;98.20;;;;;;5003043;28;20515;-82
2023/08/07 04:29:30;;;;;;;1.60;1.30;;;13.50;98.20;;;;;;5014542;28;20459;-84
2023/08/07 04:31:57;;;;;;;1.60;1.00;;;13.40;98.20;;;;;;5004386;28;20479;-83
2023/08/07 04:34:27;;;;;;;1.60;1.00;;;13.50;98.20;;;;;;5013053;28;20488;-83
2023/08/07 04:36:56;;;;;;;2.37;1.50;;;13.50;98.20;;;;;;5005406;28;20483;-83
2023/08/07 04:39:23;;;;;;;1.50;1.00;;;13.50;98.20;;;;;;5013147;28;20533;-84
2023/08/07 04:41:50;;;;;;;1.60;1.00;;;13.50;98.20;;;;;;4994699;28;20484;-83
2023/08/07 04:44:19;;;;;;;1.53;1.00;;;13.50;98.20;;;;;;5011323;28;20490;-84
2023/08/07 04:46:53;;;;;;;1.60;1.10;;;13.50;98.20;;;;;;5001369;28;20561;-83
2023/08/07 04:49:34;;;;;;;1.60;1.10;;;13.50;98.20;;;;;;5009416;28;20463;-83
2023/08/07 04:52:01;;;;;;;1.57;1.10;;;13.50;98.20;;;;;;5003725;28;20879;-81
2023/08/07 04:54:28;;;;;;;1.60;1.00;;;13.50;98.20;;;;;;5011893;28;20575;-83
2023/08/07 04:56:55;;;;;;;1.57;1.10;;;13.50;98.20;;;;;;4999559;28;20573;-84
2023/08/07 04:59:25;;;;;;;1.53;1.00;;;13.50;98.20;;;;;;5007487;28;20500;-84
2023/08/07 05:01:52;;;;;;;1.60;1.10;;;13.50;98.20;;;;;;5001241;28;20781;-84
2023/08/07 05:04:19;;;;;;;1.60;1.00;;;13.50;98.20;;;;;;5005317;28;20494;-84
2023/08/07 05:06:46;;;;;;;1.57;1.00;;;13.50;98.20;;;;;;4995358;28;21089;-84
2023/08/07 05:09:12;;;;;;;1.70;1.47;;;13.50;98.20;;;;;;5006053;28;20590;-85
2023/08/07 05:11:42;;;;;;;1.60;1.00;;;13.50;98.20;;;;;;4995889;28;20647;-83
2023/08/07 05:14:08;;;;;;;1.60;1.00;;;13.50;98.20;;;;;;5007099;28;20519;-83
2023/08/07 05:16:42;;;;;;;1.57;1.00;;;13.50;98.20;;;;;;4996346;28;20753;-84
2023/08/07 05:19:10;;;;;;;1.60;1.10;;;13.50;98.20;;;;;;5004167;28;20500;-85
2023/08/07 05:21:40;;;;;;;1.60;1.00;;;13.50;98.20;;;;;;4994871;28;20488;-85
2023/08/07 05:24:07;;;;;;;1.57;1.00;;;13.50;98.20;;;;;;5003976;28;20486;-82
2023/08/07 05:26:34;;;;;;;1.53;1.00;;;13.50;98.20;;;;;;4994822;28;20666;-86
2023/08/07 05:29:03;;;;;;;1.57;1.00;;;13.60;98.20;;;;;;5006170;28;20526;-86
2023/08/07 05:31:38;;;;;;;1.53;1.00;;;13.60;98.20;;;;;;4993528;28;20496;-86
2023/08/07 05:34:06;;;;;;;1.50;1.00;;;13.60;98.20;;;;;;4996979;28;20549;-86
2023/08/07 05:36:33;;;;;;;1.57;1.00;;;13.60;98.20;;;;;;4991261;28;20472;-86
2023/08/07 05:39:00;;;;;;;1.60;1.00;;;13.60;98.20;;;;;;5004654;28;20535;-85
2023/08/07 05:41:27;;;;;;;1.50;1.00;;;13.60;98.20;;;;;;5000124;28;20483;-87
2023/08/07 05:43:54;;;;;;;1.57;1.00;;;13.60;98.20;;;;;;5006480;28;20488;-87
2023/08/07 05:46:24;;;;;;;1.57;1.00;;;13.60;98.20;;;;;;4995008;28;20598;-87
2023/08/07 05:48:55;;;;;;;1.60;1.03;;;13.70;98.20;;;;;;5005623;28;20485;-86
2023/08/07 05:51:33;;;;;;;;;;;;;;;;;;;;;
2023/08/07 05:54:00;;;;;;;1.53;1.00;;;13.60;98.20;;;;;;5002522;28;20483;-85
2023/08/07 05:56:27;;;;;;;1.57;1.00;;;13.60;98.20;;;;;;4994527;28;20484;-83
2023/08/07 05:59:20;;;;;;;1.60;1.00;;;13.60;98.20;;;;;;5008090;28;20453;-85
2023/08/07 06:01:52;;;;;;;1.53;1.00;;;13.60;98.20;;;;;;4994943;28;20541;-84
2023/08/07 06:04:48;;;;;;;1.57;1.00;;;13.60;98.20;;;;;;5004106;28;20491;-85
2023/08/07 06:07:15;;;;;;;1.60;1.00;;;13.60;98.20;;;;;;4995363;28;20487;-84
2023/08/07 06:09:44;;;;;;;1.60;1.00;;;13.60;98.20;;;;;;5005845;28;20788;-84
2023/08/07 06:12:12;;;;;;;1.60;1.00;;;13.60;98.20;;;;;;5000166;28;20748;-85
2023/08/07 06:14:39;;;;;;;1.50;1.00;;;13.60;98.20;;;;;;5003540;28;20487;-84
2023/08/07 06:17:06;;;;;;;1.50;0.93;;;13.60;98.20;;;;;;4996878;28;20994;-84
2023/08/07 06:19:33;;;;;;;1.53;1.00;;;13.60;98.20;;;;;;5008060;28;20498;-85
2023/08/07 06:22:17;;;;;;;1.60;1.10;;;13.70;98.20;;;;;;4997449;28;20998;-83
2023/08/07 06:24:44;;;;;;;1.53;1.00;;;13.70;98.20;;;;;;5008448;28;20484;-84
2023/08/07 06:27:11;;;;;;;1.50;1.00;;;13.60;98.20;;;;;;5000316;28;20487;-86
2023/08/07 06:30:14;;;;;;;1.60;1.00;;;13.70;98.20;;;;;;5010138;28;20487;-85
2023/08/07 06:32:45;;;;;;;1.60;1.10;;;13.70;98.20;;;;;;4996721;28;20483;-86
2023/08/07 06:35:12;;;;;;;1.60;1.00;;;13.70;98.20;;;;;;5007415;28;20464;-85
2023/08/07 06:37:41;;;;;;;1.60;1.00;;;13.70;98.20;;;;;;4995553;28;20494;-85
2023/08/07 06:40:12;;;;;;;1.57;1.00;;;13.70;98.20;;;;;;5008181;28;20475;-86
2023/08/07 06:45:12;;;;;;;1.60;1.10;;;13.70;98.20;;;;;;5085603;23;20554;-86
2023/08/07 06:47:40;;;;;;;1.60;1.00;;;13.70;98.20;;;;;;4993157;28;20571;-83
2023/08/07 06:50:07;;;;;;;1.57;1.00;;;13.70;98.20;;;;;;5012351;28;20642;-83
2023/08/07 06:52:35;;;;;;;1.60;1.00;;;13.70;98.20;;;;;;4996147;28;20504;-86
2023/08/07 06:55:03;;;;;;;1.57;1.00;;;13.60;98.20;;;;;;5013968;28;20487;-87
2023/08/07 06:57:33;;;;;;;1.53;1.00;;;13.60;98.20;;;;;;5001641;28;20512;-86
2023/08/07 07:00:01;;;;;;;1.53;1.00;;;13.60;98.20;;;;;;5011167;28;20967;-84
2023/08/07 07:02:28;;;;;;;1.50;1.00;;;13.70;98.20;;;;;;5002497;28;20524;-85
2023/08/07 07:04:55;;;;;;;1.57;1.00;;;13.70;98.20;;;;;;5013084;28;20560;-83
2023/08/07 07:07:22;;;;;;;1.60;1.00;;;13.70;98.20;;;;;;5000015;28;20635;-81
2023/08/07 07:09:49;;;;;;;1.57;1.00;;;13.70;98.20;;;;;;5010294;28;20532;-84
2023/08/07 07:12:18;;;;;;;1.50;0.90;;;13.70;98.20;;;;;;4996961;28;20567;-82
2023/08/07 07:14:45;;;;;;;1.57;1.00;;;13.70;98.20;;;;;;5010532;28;20498;-83
2023/08/07 07:17:12;;;;;;;1.53;1.00;;;13.70;98.20;;;;;;5007093;28;20566;-82
2023/08/07 07:19:39;;;;;;;1.57;1.00;;;13.70;98.20;;;;;;5022377;28;20494;-82
2023/08/07 07:22:17;;;;;;;1.53;1.00;;;13.80;98.20;;;;;;4994207;28;20476;-83
2023/08/07 07:24:44;;;;;;;1.57;1.00;;;13.80;98.20;;;;;;5016343;28;20562;-81
2023/08/07 07:27:12;;;;;;;1.53;1.00;;;13.70;98.20;;;;;;5006221;28;20472;-84
2023/08/07 07:29:56;;;;;;;1.50;1.00;;;13.80;98.20;;;;;;5018180;28;20647;-83
2023/08/07 07:32:23;;;;;;;1.57;1.00;;;13.80;98.20;;;;;;4994626;28;20487;-84
2023/08/07 07:34:52;;;;;;;1.60;1.07;;;13.80;98.20;;;;;;5011168;28;20493;-84
2023/08/07 07:37:19;;;;;;;1.60;1.00;;;13.80;98.20;;;;;;4995137;28;20483;-82
2023/08/07 07:39:46;;;;;;;1.57;1.00;;;13.80;98.20;;;;;;5017898;28;20943;-79
2023/08/07 07:42:13;;;;;;;1.57;1.00;;;13.90;98.20;;;;;;5011680;28;20511;-82
2023/08/07 07:44:42;;;;;;;1.57;1.00;;;13.90;98.20;;;;;;5019485;28;20484;-83
2023/08/07 07:47:09;;;;;;;1.57;1.00;;;14.00;98.20;;;;;;5002618;28;20484;-83
2023/08/07 07:49:37;;;;;;;1.57;1.00;;;14.00;98.20;;;;;;5013641;28;20505;-80
2023/08/07 07:52:05;;;;;;;1.60;1.03;;;14.10;98.20;;;;;;5004744;28;20489;-80
2023/08/07 07:54:32;;;;;;;1.60;1.17;;;14.10;98.20;;;;;;5017079;28;20492;-84
2023/08/07 07:56:59;;;;;;;1.60;1.00;;;14.10;98.20;;;;;;5003740;28;20507;-84
2023/08/07 07:59:26;;;;;;;1.57;1.00;;;14.20;98.20;;;;;;5015064;28;20459;-83
2023/08/07 08:01:55;;;;;;;1.60;1.00;;;14.20;98.20;;;;;;4996409;28;20496;-83
2023/08/07 08:04:22;;;;;;;1.60;1.00;;;14.20;98.20;;;;;;5011273;28;20484;-83
2023/08/07 08:06:50;;;;;;;1.60;1.00;;;14.20;98.20;;;;;;5003292;28;20488;-84
2023/08/07 08:09:27;;;;;;;1.60;1.10;;;14.20;98.20;;;;;;5015344;28;20487;-83
2023/08/07 08:11:56;;;;;;;1.57;1.00;;;14.20;98.20;;;;;;4995594;28;21697;-84
2023/08/07 08:14:23;;;;;;;1.53;1.00;;;14.20;98.20;;;;;;5011872;28;20527;-84
2023/08/07 08:16:50;;;;;;;1.60;1.00;;;14.20;98.20;;;;;;4999004;28;21299;-85
2023/08/07 08:19:19;;;;;;;1.57;1.00;;;14.30;98.20;;;;;;5015338;28;20682;-84
2023/08/07 08:21:46;;;;;;;1.60;1.00;;;14.30;98.20;;;;;;4998183;28;20547;-82
2023/08/07 08:24:12;;;;;;;1.53;0.90;;;14.40;98.20;;;;;;5012523;28;20500;-82
2023/08/07 08:26:39;;;;;;;1.57;1.00;;;14.50;98.20;;;;;;4999921;28;20947;-83
2023/08/07 08:29:07;;;;;;;1.60;1.00;;;14.50;98.20;;;;;;5011442;28;20503;-83
2023/08/07 08:31:34;;;;;;;1.60;1.00;;;14.50;98.20;;;;;;4995583;28;20503;-84
2023/08/07 08:34:03;;;;;;;1.60;1.00;;;14.60;98.20;;;;;;5010198;28;20487;-83
2023/08/07 08:36:32;;;;;;;1.57;1.00;;;14.60;98.20;;;;;;5001457;28;20484;-85
2023/08/07 08:39:34;;;;;;;1.57;1.10;;;14.60;98.20;;;;;;5008986;28;20486;-85
2023/08/07 08:42:03;;;;;;;1.60;1.10;;;14.70;98.20;;;;;;4916958;29;20487;-83
2023/08/07 08:45:03;;;;;;;1.60;1.10;;;14.80;98.20;;;;;;4933126;29;20749;-84
2023/08/07 08:47:34;;;;;;;1.60;1.00;;;14.90;98.20;;;;;;4955389;28;20817;-83
2023/08/07 08:50:03;;;;;;;1.60;0.90;;;15.00;98.20;;;;;;4985227;28;20503;-84
2023/08/07 08:52:32;;;;;;;1.60;1.00;;;15.00;98.20;;;;;;4981166;28;20484;-84
2023/08/07 08:55:00;;;;;;;1.60;1.07;;;15.10;98.20;;;;;;4991184;28;21015;-84
2023/08/07 08:57:45;;;;;;;1.60;1.10;;;15.10;98.20;;;;;;4979744;28;20615;-84
2023/08/07 09:00:17;;;;;;;1.60;0.90;;;15.10;98.20;;;;;;4986055;28;20487;-83
2023/08/07 09:02:45;;;;;;;1.60;1.00;;;15.10;98.20;;;;;;4979311;28;20503;-83
2023/08/07 09:05:12;;;;;;;1.60;0.90;;;15.10;98.20;;;;;;4997799;28;20911;-83
2023/08/07 09:07:41;;;;;;;1.60;1.00;;;15.10;98.20;;;;;;4979852;28;20492;-83
2023/08/07 09:10:30;;;;;;;1.60;1.00;;;15.10;98.20;;;;;;4991441;28;20547;-83
2023/08/07 09:13:06;;;;;;;1.60;1.00;;;15.00;98.20;;;;;;4973870;28;20555;-85
2023/08/07 09:15:33;;;;;;;1.60;1.10;;;15.00;98.20;;;;;;4987682;28;20457;-84
2023/08/07 09:18:27;;;;;;;1.60;1.10;;;15.00;98.20;;;;;;4978586;28;20484;-85
2023/08/07 09:21:16;;;;;;;1.60;1.00;;;14.90;98.20;;;;;;4985657;28;20488;-84
2023/08/07 09:23:44;;;;;;;1.60;1.00;;;15.00;98.20;;;;;;4982850;28;20481;-84
2023/08/07 09:26:12;;;;;;;1.60;1.10;;;15.10;98.20;;;;;;4976441;28;20481;-84
2023/08/07 09:28:39;;;;;;;1.60;1.10;;;15.20;98.20;;;;;;4987869;28;20492;-85
2023/08/07 09:31:09;;;;;;;1.60;1.00;;;15.40;98.20;;;;;;4979368;28;20467;-84
2023/08/07 09:34:29;;;;;;;1.60;1.00;;;15.60;98.20;;;;;;4991811;28;20481;-85
2023/08/07 09:36:57;;;;;;;1.60;0.90;;;15.90;98.20;;;;;;4971542;28;20512;-84
2023/08/07 09:39:27;;;;;;;1.60;1.00;;;16.10;98.20;;;;;;4991652;28;20460;-83
2023/08/07 09:41:54;;;;;;;1.60;0.93;;;16.10;98.20;;;;;;4983104;28;20485;-83
2023/08/07 09:44:25;;;;;;;1.60;1.00;;;16.10;98.20;;;;;;4989879;28;20507;-84
2023/08/07 09:46:52;;;;;;;1.60;0.93;;;16.20;98.20;;;;;;4994947;28;20503;-84
2023/08/07 09:49:58;;;;;;;1.60;1.00;;;16.20;98.20;;;;;;5014825;28;20574;-82
2023/08/07 09:52:28;;;;;;;1.60;1.00;;;16.40;98.20;;;;;;4995282;28;20484;-85
2023/08/07 09:54:58;;;;;;;1.60;1.00;;;16.60;98.20;;;;;;5012321;28;20476;-84
2023/08/07 09:57:31;;;;;;;1.60;1.00;;;16.80;98.20;;;;;;5011767;28;20489;-84
2023/08/07 09:59:59;;;;;;;1.60;1.00;;;17.10;98.20;;;;;;5021876;28;20480;-82
2023/08/07 10:02:29;;;;;;;1.60;1.00;;;17.30;98.20;;;;;;5005269;28;20483;-83
2023/08/07 10:04:56;;;;;;;1.60;1.00;;;17.40;98.20;;;;;;5016801;28;20536;-83
2023/08/07 10:07:26;;;;;;;1.60;0.90;;;17.60;98.20;;;;;;5003218;28;20495;-84
2023/08/07 10:10:28;;;;;;;1.63;1.00;;;17.70;98.20;;;;;;5015143;28;21010;-83
2023/08/07 10:13:36;;;;;;;1.60;0.90;;;18.00;98.20;;;;;;4989960;28;20479;-84
2023/08/07 10:16:09;;;;;;;1.60;0.90;;;18.30;98.20;;;;;;5010429;28;20451;-84
2023/08/07 10:19:02;;;;;;;1.60;1.00;;;18.50;98.20;;;;;;5013867;28;20978;-84
2023/08/07 10:21:29;;;;;;;1.60;1.00;;;18.90;98.20;;;;;;4989113;28;20501;-84
2023/08/07 10:24:10;;;;;;;1.60;0.90;;;19.20;98.20;;;;;;5012729;28;20480;-84
2023/08/07 10:26:44;;;;;;;1.60;0.90;;;19.40;98.20;;;;;;5008808;28;20498;-84
2023/08/07 10:29:15;;;;;;;1.60;0.90;;;19.40;98.20;;;;;;5011872;28;20486;-84
2023/08/07 10:31:44;;;;;;;1.93;1.30;;;19.50;98.20;;;;;;5004782;28;20566;-84
2023/08/07 10:34:14;;;;;;;1.60;0.90;;;19.70;98.20;;;;;;5009394;28;21076;-84
2023/08/07 10:36:45;;;;;;;1.60;0.90;;;19.80;98.20;;;;;;5000948;28;20511;-84
2023/08/07 10:42:27;;;;;;;1.60;0.90;;;20.00;98.20;;;;;;4998882;28;21061;-84
2023/08/07 10:44:56;;;;;;;1.60;0.90;;;20.30;98.20;;;;;;5170726;23;20521;-84
2023/08/07 10:48:03;;;;;;;1.60;0.90;;;20.50;98.20;;;;;;4992947;28;20567;-85
2023/08/07 11:15:00;;;;;;;1.50;0.90;;;21.60;95.60;;;;;;5010036;28;20511;-84
2023/08/07 11:17:33;;;;;;;1.57;0.90;;;21.80;94.10;;;;;;5018890;28;21021;-85
2023/08/07 11:20:28;;;;;;;1.57;0.90;;;21.90;92.60;;;;;;5037912;28;20521;-84
2023/08/07 11:23:28;;;;;;;;;;;;;;;;;;;;;
2023/08/07 11:26:02;;;;;;;1.57;0.90;;;22.20;90.30;;;;;;4940250;28;20483;-85
2023/08/07 11:28:30;;;;;;;1.53;0.90;;;22.20;92.50;;;;;;5020794;28;20458;-84
2023/08/07 11:34:27;;;;;;;1.50;0.90;;;22.20;90.80;;;;;;5028146;28;20494;-84
2023/08/07 11:37:17;;;;;;;1.53;0.90;;;22.40;92.70;;;;;;5018473;28;20515;-84
2023/08/07 11:39:51;;;;;;;2.23;1.00;;;22.40;87.80;;;;;;5030454;28;20977;-83
2023/08/07 11:45:03;;;;;;;1.50;0.90;;;22.80;89.20;;;;;;5002515;28;20486;-84
2023/08/07 11:48:03;;;;;;;1.57;0.90;;;23.00;89.90;;;;;;5029735;28;20473;-85
2023/08/07 11:50:31;;;;;;;1.53;0.83;;;23.10;88.30;;;;;;5029767;28;21072;-83
2023/08/07 11:53:00;;;;;;;1.50;0.90;;;23.30;87.90;;;;;;5020858;28;21072;-83
2023/08/07 11:55:31;;;;;;;1.50;0.90;;;23.40;87.80;;;;;;5029855;28;20534;-83
2023/08/07 11:57:58;;;;;;;1.57;0.90;;;23.50;86.10;;;;;;5020926;28;20491;-82
2023/08/07 12:00:35;;;;;;;1.57;0.80;;;23.60;86.50;;;;;;5029618;28;20551;-83
2023/08/07 12:06:43;;;;;;;1.50;0.83;;;23.50;83.30;;;;;;5021403;28;20594;-83
2023/08/07 12:21:27;;;;;;;1.50;0.83;;;22.90;82.20;;;;;;5004231;28;20489;-83
2023/08/07 12:24:17;;;;;;;1.60;1.10;;;22.70;81.50;;;;;;5022638;28;20913;-82
2023/08/07 12:26:48;;;;;;;1.50;0.90;;;22.90;82.80;;;;;;5028260;28;20492;-82
2023/08/07 12:32:12;;;;;;;1.50;0.80;;;23.50;81.40;;;;;;5008321;28;20478;-82
2023/08/07 12:35:08;;;;;;;1.50;0.90;;;23.60;80.50;;;;;;5136290;23;20611;-82
2023/08/07 12:37:45;;;;;;;1.50;0.90;;;23.60;81.70;;;;;;5017047;28;20597;-82
2023/08/07 12:40:28;;;;;;;1.50;0.90;;;23.70;80.10;;;;;;5026451;28;20534;-82
2023/08/07 12:43:02;;;;;;;1.50;0.87;;;23.70;78.90;;;;;;5012642;28;20490;-84
2023/08/07 12:45:39;;;;;;;1.53;0.90;;;24.00;79.50;;;;;;5015827;28;21120;-81
2023/08/07 12:48:07;;;;;;;1.50;0.90;;;24.20;78.20;;;;;;5005444;28;20483;-83
2023/08/07 12:50:37;;;;;;;1.50;0.90;;;24.20;76.80;;;;;;5016242;28;20922;-83
2023/08/07 12:53:09;;;;;;;1.50;0.80;;;23.90;77.10;;;;;;4993693;28;21052;-83
2023/08/07 12:55:36;;;;;;;1.50;0.80;;;23.80;77.30;;;;;;5014517;28;20463;-83
2023/08/07 12:58:04;;;;;;;1.50;0.80;;;23.70;78.40;;;;;;5002616;28;20570;-83
2023/08/07 13:00:33;;;;;;;1.50;0.80;;;23.70;77.10;;;;;;5012816;28;20492;-83
2023/08/07 13:03:15;;;;;;;1.50;0.80;;;23.80;78.50;;;;;;5003476;28;20494;-82
2023/08/07 13:05:45;;;;;;;1.50;0.90;;;23.90;78.00;;;;;;5009623;28;20472;-83
2023/08/07 13:08:33;;;;;;;1.50;0.83;;;24.00;77.30;;;;;;4984660;28;20562;-82
2023/08/07 13:11:00;;;;;;;1.50;0.80;;;24.20;75.90;;;;;;5000407;28;20494;-83
2023/08/07 13:13:31;;;;;;;1.53;0.90;;;24.40;75.80;;;;;;5006891;28;20646;-84
2023/08/07 13:15:59;;;;;;;1.50;0.90;;;24.50;75.90;;;;;;5005755;28;20478;-82
2023/08/07 13:18:26;;;;;;;1.80;1.30;;;24.50;76.10;;;;;;5009954;28;20834;-81
2023/08/07 13:21:39;;;;;;;;;;;;;;;;;;;;;
2023/08/07 13:24:08;;;;;;;1.50;0.87;;;24.50;76.40;;;;;;4994356;28;20501;-83
2023/08/07 13:26:36;;;;;;;1.50;0.80;;;24.60;76.70;;;;;;5005371;28;20483;-84
2023/08/07 13:29:03;;;;;;;1.50;0.80;;;24.60;75.60;;;;;;5011034;28;20471;-82
2023/08/07 13:32:10;;;;;;;1.50;0.90;;;24.80;75.80;;;;;;5000330;28;20534;-81
2023/08/07 13:34:38;;;;;;;1.50;0.90;;;24.90;74.90;;;;;;5008151;28;20510;-82
2023/08/07 13:37:06;;;;;;;1.50;0.90;;;24.50;74.00;;;;;;5006848;28;20843;-83
2023/08/07 13:39:35;;;;;;;1.50;0.80;;;24.10;74.50;;;;;;5010249;28;20513;-82
2023/08/07 13:42:02;;;;;;;1.50;0.90;;;23.80;76.40;;;;;;5008778;28;20480;-82
2023/08/07 13:44:31;;;;;;;1.50;0.80;;;23.80;78.20;;;;;;5017575;28;20915;-80
2023/08/07 13:46:59;;;;;;;1.50;0.80;;;23.80;76.50;;;;;;4999177;28;20547;-82
2023/08/07 13:49:27;;;;;;;1.50;0.87;;;23.60;76.70;;;;;;5016768;28;20471;-83
2023/08/07 13:51:54;;;;;;;1.50;0.90;;;23.20;77.40;;;;;;4999207;28;21009;-81
2023/08/07 13:54:34;;;;;;;1.50;0.80;;;23.00;78.50;;;;;;5010975;28;20867;-82
2023/08/07 13:57:01;;;;;;;1.50;0.80;;;23.10;79.20;;;;;;5002588;28;20518;-81
2023/08/07 13:59:28;;;;;;;1.50;0.90;;;23.00;79.90;;;;;;5009072;28;20468;-81
2023/08/07 14:01:56;;;;;;;1.50;0.80;;;22.80;80.40;;;;;;5005560;28;20487;-80
2023/08/07 14:04:23;;;;;;;1.50;0.90;;;22.60;80.10;;;;;;5011501;28;20487;-81
2023/08/07 14:06:53;;;;;;;1.50;0.80;;;22.50;80.90;;;;;;4999134;28;20557;-82